Latest Weather Observations for Geelong Racecourse

IDV60901

Issued at 7:01 pm EDT Monday 23 October 2017 (issued every 10 minutes, with the page automatically refreshed every 10 minutes)

About weather observations | Map of Melbourne area stations | Latest observations for Melbourne area | Other Formats
Station Details ID: 087184 Name: GEELONG RACECOURSE Lat: -38.17 Lon: 144.38 Height: 12.9 m
Data from the previous 72 hours. | See also: Recent months at Geelong Racecourse
Date/Time
EDT
Temp
°C
App
Temp
°C
Dew
Point
°C
Rel
Hum
%
Delta-T
°C
Wind Press
QNH
hPa
Press
MSL
hPa
Rain since
9am
mm
Dir  Spd
km/h
Gust
km/h
Spd
kts
Gust
kts
23/07:00pm 14.3 12.6 11.3 82 1.6 SSE 11 17 6 9 1017.7 1017.7 0.0
23/06:30pm 14.8 12.4 11.4 80 1.8 SSE 15 20 8 11 1017.5 1017.5 0.0
23/06:00pm 15.1 13.1 11.5 79 1.9 SSE 13 19 7 10 1017.4 1017.4 0.0
23/05:30pm 15.4 13.4 11.6 78 2.0 SSE 13 20 7 11 1017.4 1017.4 0.0
23/05:00pm 15.6 14.1 11.8 78 2.1 SSE 11 19 6 10 1017.2 1017.2 0.0
23/04:30pm 16.0 13.4 12.0 77 2.2 S 17 24 9 13 1017.3 1017.3 0.0
23/04:00pm 16.1 13.6 12.3 78 2.1 SSW 17 22 9 12 1017.4 1017.4 0.0
23/03:30pm 15.5 12.5 12.6 83 1.6 S 20 28 11 15 1017.7 1017.7 0.0
23/03:00pm 15.2 12.8 12.5 84 1.5 S 17 24 9 13 1017.8 1017.8 0.0
23/02:30pm 16.9 15.1 12.0 73 2.7 SW 13 20 7 11 1017.8 1017.8 0.0
23/02:00pm 17.2 16.3 11.2 68 3.2 W 7 15 4 8 1017.8 1017.8 0.0
23/01:30pm 16.2 14.4 12.2 77 2.2 W 13 19 7 10 1018.2 1018.2 0.0
23/01:00pm 16.1 14.5 11.7 75 2.4 WSW 11 20 6 11 1018.4 1018.4 0.0
23/12:30pm 16.1 14.1 11.5 74 2.5 SW 13 19 7 10 1018.6 1018.6 0.0
23/12:00pm 15.4 13.8 11.6 78 2.0 WSW 11 17 6 9 1019.0 1019.0 0.0
23/11:30am 14.8 12.8 11.4 80 1.8 W 13 20 7 11 1019.2 1019.2 0.0
23/11:00am 15.1 13.1 11.5 79 1.9 W 13 19 7 10 1019.3 1019.3 0.0
23/10:30am 15.2 14.3 11.4 78 2.0 WNW 7 11 4 6 1019.1 1019.1 0.0
23/10:00am 14.0 13.0 12.4 90 0.9 WNW 9 13 5 7 1019.0 1019.0 0.0
23/09:30am 13.6 13.2 12.3 92 0.7 WNW 6 15 3 8 1019.0 1019.0 0.0
23/09:00am 14.3 13.6 13.2 93 0.6 NW 9 15 5 8 1019.1 1019.1 2.4
23/08:30am 13.1 12.1 12.2 94 0.5 WNW 9 13 5 7 1019.1 1019.1 2.4
23/08:00am 11.8 10.8 11.0 95 0.4 W 7 11 4 6 1019.1 1019.1 2.4
23/07:30am 10.8 9.1 10.0 95 0.4 WNW 9 15 5 8 1018.9 1018.9 2.4
23/07:00am 10.0 8.7 9.2 95 0.4 NW 6 9 3 5 1018.8 1018.8 2.4
23/06:30am 9.8 8.8 9.0 95 0.4 NW 4 6 2 3 1018.7 1018.7 2.4
23/06:00am 10.3 9.1 9.4 94 0.4 W 6 9 3 5 1018.8 1018.8 2.4
23/05:30am 10.6 9.4 9.7 94 0.5 WNW 6 9 3 5 1018.7 1018.7 2.4
23/05:00am 10.8 9.5 9.9 94 0.5 WNW 7 9 4 5 1018.5 1018.5 2.4
23/04:30am 10.4 9.2 9.5 94 0.5 W 6 11 3 6 1018.5 1018.5 2.4
23/04:00am 10.3 9.4 9.4 94 0.4 W 4 7 2 4 1018.4 1018.4 2.4
23/03:30am 10.2 9.3 9.1 93 0.5 W 4 4 2 2 1018.3 1018.3 2.4
23/03:00am 10.8 9.6 9.7 93 0.6 W 6 7 3 4 1018.4 1018.4 2.4
23/02:30am 11.1 10.0 10.0 93 0.6 W 6 7 3 4 1018.7 1018.7 2.4
23/02:00am 11.6 10.5 10.5 93 0.6 W 7 9 4 5 1019.0 1019.0 2.4
23/01:30am 11.6 10.7 10.5 93 0.6 W 6 9 3 5 1019.4 1019.4 2.4
23/01:00am 11.3 10.3 10.2 93 0.6 W 6 6 3 3 1019.5 1019.5 2.4
23/12:30am 11.9 11.0 10.8 93 0.6 W 6 7 3 4 1019.6 1019.6 2.4
23/12:00am 12.1 11.3 11.0 93 0.6 W 6 7 3 4 1019.6 1019.6 2.4
 
Date/Time
EDT
Temp
°C
App
Temp
°C
Dew
Point
°C
Rel
Hum
%
Delta-T
°C
Wind Press
QNH
hPa
Press
MSL
hPa
Rain since
9am
mm
Dir  Spd
km/h
Gust
km/h
Spd
kts
Gust
kts
22/11:30pm 12.1 11.7 11.2 94 0.5 WNW 4 6 2 3 1019.6 1019.6 2.4
22/11:00pm 11.8 11.3 10.9 94 0.5 W 4 6 2 3 1019.7 1019.7 2.4
22/10:30pm 11.8 11.3 10.9 94 0.5 W 4 7 2 4 1019.8 1019.8 2.4
22/10:00pm 11.2 10.6 10.3 94 0.5 WSW 4 6 2 3 1019.6 1019.6 2.4
22/09:30pm 11.2 10.2 10.3 94 0.5 SW 6 7 3 4 1019.5 1019.5 2.4
22/09:00pm 11.3 10.1 10.4 94 0.5 SW 7 9 4 5 1019.3 1019.3 2.4
22/08:30pm 11.7 10.2 10.6 93 0.6 SW 9 13 5 7 1018.8 1018.8 2.4
22/08:00pm 12.4 10.7 11.3 93 0.6 SSW 11 15 6 8 1018.5 1018.5 2.4
22/07:30pm 13.4 10.7 11.8 90 0.9 SSW 17 24 9 13 1018.2 1018.2 2.4
22/07:00pm 14.1 10.3 11.3 83 1.5 SSW 22 28 12 15 1018.3 1018.3 2.4
22/06:30pm 14.6 10.2 11.6 82 1.6 SSW 26 33 14 18 1017.9 1017.9 2.4
22/06:00pm 15.0 11.0 11.8 81 1.7 SSW 24 35 13 19 1017.7 1017.7 2.4
22/05:30pm 15.2 11.3 12.0 81 1.7 SSW 24 30 13 16 1017.5 1017.5 2.4
22/05:00pm 15.7 12.6 12.3 80 1.9 S 20 28 11 15 1017.3 1017.3 2.4
22/04:30pm 15.8 13.0 13.3 85 1.4 S 20 28 11 15 1017.1 1017.1 2.4
22/04:00pm 16.0 12.3 12.7 81 1.8 S 24 33 13 18 1017.3 1017.3 2.4
22/03:30pm 15.9 11.7 12.5 80 1.9 S 26 35 14 19 1017.4 1017.4 2.4
22/03:00pm 15.7 12.6 13.4 86 1.3 S 22 32 12 17 1017.6 1017.6 2.4
22/02:30pm 15.9 12.4 13.4 85 1.4 S 24 32 13 17 1017.8 1017.8 2.4
22/02:00pm 15.7 13.0 13.5 87 1.2 SSW 20 30 11 16 1017.8 1017.8 2.4
22/01:30pm 15.1 12.5 13.8 92 0.7 SSW 20 30 11 16 1018.0 1018.0 2.4
22/01:00pm 14.6 14.0 13.6 94 0.6 SSW 9 19 5 10 1018.3 1018.3 2.4
22/12:30pm 14.1 13.9 13.1 94 0.6 W 6 9 3 5 1018.4 1018.4 1.2
22/12:00pm 13.2 12.1 12.1 93 0.6 W 9 13 5 7 1018.7 1018.7 0.4
22/11:30am 13.9 12.6 12.6 92 0.7 W 11 17 6 9 1018.7 1018.7 0.0
22/11:00am 14.4 12.4 11.4 82 1.6 W 13 19 7 10 1018.6 1018.6 0.0
22/10:30am 14.3 12.2 11.3 82 1.6 WSW 13 20 7 11 1018.7 1018.7 0.0
22/10:00am 14.1 12.0 11.1 82 1.6 W 13 22 7 12 1018.6 1018.6 0.0
22/09:30am 14.7 12.5 12.0 84 1.5 W 15 22 8 12 1018.4 1018.4 0.0
22/09:00am 13.4 10.8 12.1 92 0.7 W 17 22 9 12 1018.6 1018.6 0.0
22/08:30am 12.5 10.4 11.2 92 0.7 W 13 22 7 12 1018.7 1018.7 0.0
22/08:00am 11.9 10.1 10.8 93 0.6 W 11 17 6 9 1018.6 1018.6 0.0
22/07:30am 11.6 9.7 10.5 93 0.6 W 11 20 6 11 1018.4 1018.4 0.0
22/07:00am 10.8 9.1 9.7 93 0.6 WNW 9 15 5 8 1018.2 1018.2 0.0
22/06:30am 10.5 9.1 9.6 94 0.5 W 7 13 4 7 1018.1 1018.1 0.0
22/06:00am 10.4 8.6 9.3 93 0.5 WNW 9 13 5 7 1017.9 1017.9 0.0
22/05:30am 10.3 8.4 9.2 93 0.5 WNW 9 13 5 7 1017.8 1017.8 0.0
22/05:00am 10.9 8.8 9.8 93 0.6 W 11 17 6 9 1018.0 1018.0 0.0
22/04:30am 11.0 8.9 9.9 93 0.6 W 11 17 6 9 1018.3 1018.3 0.0
22/04:00am 11.0 8.6 9.9 93 0.6 W 13 19 7 10 1018.5 1018.5 0.0
22/03:30am 11.0 8.6 10.1 94 0.5 W 13 17 7 9 1018.8 1018.8 0.0
22/03:00am 10.5 9.1 9.6 94 0.5 WNW 7 13 4 7 1018.8 1018.8 0.0
22/02:30am 10.6 8.5 9.7 94 0.5 W 11 17 6 9 1019.4 1019.4 0.0
22/02:00am 10.3 8.1 9.2 93 0.5 W 11 19 6 10 1019.7 1019.7 0.0
22/01:30am 10.8 8.3 9.6 92 0.6 W 13 19 7 10 1020.1 1020.1 0.0
22/01:00am 10.5 9.0 9.3 92 0.6 W 7 13 4 7 1020.4 1020.4 0.0
22/12:30am 11.2 8.5 8.8 85 1.2 W 13 24 7 13 1020.6 1020.6 0.0
22/12:00am 11.4 9.1 9.0 85 1.2 W 11 19 6 10 1020.8 1020.8 0.0
 
Date/Time
EDT
Temp
°C
App
Temp
°C
Dew
Point
°C
Rel
Hum
%
Delta-T
°C
Wind Press
QNH
hPa
Press
MSL
hPa
Rain since
9am
mm
Dir  Spd
km/h
Gust
km/h
Spd
kts
Gust
kts
21/11:30pm 11.2 8.8 10.0 92 0.6 W 13 19 7 10 1021.1 1021.1 0.0
21/11:00pm 11.0 8.9 9.8 92 0.6 W 11 15 6 8 1021.4 1021.4 0.0
21/10:30pm 11.0 8.9 9.8 92 0.6 W 11 17 6 9 1021.5 1021.5 0.0
21/10:00pm 11.3 8.2 9.0 86 1.1 WSW 15 26 8 14 1021.7 1021.7 0.0
21/09:30pm 11.8 9.1 8.8 82 1.5 W 13 19 7 10 1021.8 1021.8 0.0
21/09:00pm 11.7 9.4 8.9 83 1.4 WSW 11 17 6 9 1022.0 1022.0 0.0
21/08:30pm 12.4 9.7 8.9 79 1.8 WSW 13 19 7 10 1021.9 1021.9 0.0
21/08:00pm 12.1 11.7 11.0 93 0.6 SW 4 6 2 3 1021.9 1021.9 0.0
21/07:30pm 12.3 11.4 11.2 93 0.6 SW 7 9 4 5 1021.9 1021.9 0.0
21/07:00pm 12.8 10.6 10.9 88 1.0 SSW 13 19 7 10 1021.9 1021.9 0.0
21/06:30pm 13.1 10.4 10.5 84 1.4 S 15 20 8 11 1021.8 1021.8 0.0
21/06:00pm 13.5 11.1 9.9 79 1.8 SSW 13 17 7 9 1021.9 1021.9 0.0
21/05:30pm 13.6 11.6 10.0 79 1.9 S 11 15 6 8 1022.0 1022.0 0.0
21/05:00pm 12.9 10.0 11.0 88 1.0 SSW 17 20 9 11 1022.1 1022.1 0.0
21/04:30pm 14.4 11.8 9.2 71 2.7 S 13 17 7 9 1022.2 1022.2 0.0
21/04:00pm 14.2 10.8 9.0 71 2.6 S 17 22 9 12 1022.5 1022.5 0.0
21/03:30pm 14.8 12.0 8.7 67 3.1 S 13 19 7 10 1022.7 1022.7 0.0
21/03:00pm 14.5 12.1 8.7 68 2.9 SSW 11 19 6 10 1023.2 1023.2 0.0
21/02:30pm 14.7 13.2 9.1 69 2.9 SSE 7 13 4 7 1023.5 1023.5 0.0
21/02:00pm 13.2 11.1 8.3 72 2.4 SSW 9 17 5 9 1024.0 1024.0 0.0
21/01:30pm 14.6 13.4 7.9 64 3.3 NE 4 11 2 6 1024.2 1024.2 0.0
21/01:00pm 13.9 12.0 7.7 66 3.0 S 7 13 4 7 1024.5 1024.5 0.0
21/12:30pm 13.5 10.9 7.7 68 2.9 S 11 15 6 8 1024.9 1024.9 0.0
21/12:00pm 13.6 10.5 7.2 65 3.1 SW 13 17 7 9 1025.4 1025.4 0.0
21/11:30am 12.8 8.8 6.8 67 2.9 WSW 17 20 9 11 1025.7 1025.7 0.0
21/11:00am 12.7 9.0 6.3 65 3.0 WSW 15 24 8 13 1025.9 1025.9 0.0
21/10:30am 13.2 8.9 7.0 66 3.0 W 19 26 10 14 1025.9 1025.9 0.0
21/10:00am 12.9 10.0 6.7 66 3.0 WSW 11 17 6 9 1025.9 1025.9 0.0
21/09:30am 12.1 8.8 6.6 69 2.6 W 13 19 7 10 1026.2 1026.2 0.0
21/09:00am 11.8 8.5 6.3 69 2.6 W 13 19 7 10 1026.2 1026.2 0.0
21/08:30am 11.6 9.1 6.7 72 2.3 W 9 17 5 9 1026.2 1026.2 0.0
21/08:00am 11.2 8.3 6.3 72 2.3 W 11 15 6 8 1026.2 1026.2 0.0
21/07:30am 11.2 8.6 5.9 70 2.5 W 9 15 5 8 1026.2 1026.2 0.0
21/07:00am 11.1 8.4 5.8 70 2.4 W 9 15 5 8 1026.3 1026.3 0.0
21/06:30am 11.1 8.0 5.6 69 2.5 W 11 17 6 9 1026.2 1026.2 0.0
21/06:00am 10.9 8.2 5.4 69 2.5 W 9 13 5 7 1026.2 1026.2 0.0
21/05:30am 10.9 8.1 5.2 68 2.6 W 9 13 5 7 1026.1 1026.1 0.0
21/05:00am 11.1 7.6 5.4 68 2.6 WSW 13 19 7 10 1026.3 1026.3 0.0
21/04:30am 11.1 8.0 5.6 69 2.5 WSW 11 15 6 8 1026.6 1026.6 0.0
21/04:00am 11.0 7.9 5.5 69 2.5 WSW 11 15 6 8 1026.9 1026.9 0.0
21/03:30am 11.0 8.3 5.7 70 2.4 W 9 11 5 6 1027.0 1027.0 0.0
21/03:00am 10.9 8.2 5.7 70 2.4 W 9 13 5 7 1027.2 1027.2 0.0
21/02:30am 11.1 8.0 5.4 68 2.6 WSW 11 17 6 9 1027.6 1027.6 0.0
21/02:00am 11.1 7.9 5.2 67 2.7 WSW 11 17 6 9 1027.8 1027.8 0.0
21/01:30am 11.2 8.4 5.1 66 2.8 WSW 9 13 5 7 1028.3 1028.3 0.0
21/01:00am 11.2 8.4 5.1 66 2.8 WSW 9 13 5 7 1028.5 1028.5 0.0
21/12:30am 11.2 9.0 5.3 67 2.7 WSW 6 9 3 5 1028.8 1028.8 0.0
21/12:00am 11.4 8.1 4.6 63 3.1 SSW 11 15 6 8 1028.9 1028.9 0.0
 
Date/Time
EDT
Temp
°C
App
Temp
°C
Dew
Point
°C
Rel
Hum
%
Delta-T
°C
Wind Press
QNH
hPa
Press
MSL
hPa
Rain since
9am
mm
Dir  Spd
km/h
Gust
km/h
Spd
kts
Gust
kts
20/11:30pm 11.5 8.5 5.8 68 2.7 SW 11 20 6 11 1029.0 1029.0 0.0
20/11:00pm 11.6 8.5 5.5 66 2.8 SW 11 17 6 9 1029.1 1029.1 0.0
20/10:30pm 11.6 8.9 5.5 66 2.8 WSW 9 15 5 8 1029.4 1029.4 0.0
20/10:00pm 11.6 8.9 5.5 66 2.8 WSW 9 13 5 7 1029.5 1029.5 0.0
20/09:30pm 11.8 8.2 5.2 64 3.0 SW 13 19 7 10 1029.4 1029.4 0.0
20/09:00pm 11.6 7.6 4.8 63 3.1 SSW 15 20 8 11 1029.6 1029.6 0.0
20/08:30pm 10.8 6.7 4.3 64 2.9 SSW 15 20 8 11 1029.3 1029.3 0.0
20/08:00pm 11.0 6.5 4.2 63 3.0 SSW 17 24 9 13 1029.1 1029.1 0.0
20/07:30pm 11.8 6.4 4.5 61 3.3 SSW 22 32 12 17 1028.8 1028.8 0.0

Latest Capital City Observations: Canberra | Sydney | Melbourne | Brisbane | Adelaide | Perth | Hobart | Darwin

Other Formats:

Comma delimited format used in spreadsheet applications
http://www.bom.gov.au/fwo/IDV60901/IDV60901.94857.axf

JavaScript Object Notation format (JSON) in row-major order
http://www.bom.gov.au/fwo/IDV60901/IDV60901.94857.json